Sao Vicente de Minas, Brazil
Current Conditions -  °F | °C
As of 7:00 PM on Wednesday 22 Oct 2014 (Local Time) from SBBQ Reporting Station
Broken Clouds Broken Clouds  
Wind Chill: 61°   Ceiling: 1100
Heat Index: 61°   Visibility: 6mi
Dew Point: 55°   Wind: 7mph
Humidity: 82%   Direction: 110°ESE
Pressure: 30.27"   Gusts: NA
Location:  21.71°S, 44.44°W
Report Text: SBBQ 222100Z 11006KT 9999 BKN011 16/13 Q1025
Loading
Personal Weather Stations






























Interactive Weather Map
Tropical Storm Tracking
New forecast layout! Learn more

10-Day Weather Forecast

Advertisements
Track Severe Weather on mobile